createdAt,value
2022-11-23T00:01:21.506Z,5.46
2022-11-23T00:03:51.277Z,5.39
2022-11-23T00:06:19.223Z,5.34
2022-11-23T00:08:46.544Z,5.60
2022-11-23T00:11:14.453Z,5.48
2022-11-23T00:13:43.822Z,5.42
2022-11-23T00:16:19.911Z,5.66
2022-11-23T00:18:48.144Z,5.63
2022-11-23T00:21:17.155Z,5.97
2022-11-23T00:23:45.356Z,5.58
2022-11-23T00:26:13.971Z,5.53
2022-11-23T00:28:42.165Z,5.84
2022-11-23T00:31:11.965Z,5.85
2022-11-23T00:33:39.981Z,5.29
2022-11-23T00:36:10.901Z,5.52
2022-11-23T00:38:38.645Z,5.42
2022-11-23T00:41:12.988Z,5.41
2022-11-23T00:43:40.648Z,5.17
2022-11-23T00:46:21.193Z,5.28
2022-11-23T00:48:50.661Z,5.34
2022-11-23T00:51:21.042Z,5.37
2022-11-23T00:53:49.861Z,5.08
2022-11-23T00:56:18.345Z,5.09
2022-11-23T00:58:52.945Z,5.07
2022-11-23T01:01:22.461Z,5.20
2022-11-23T01:03:55.891Z,5.18
2022-11-23T01:06:28.264Z,5.64
2022-11-23T01:08:58.196Z,5.42
2022-11-23T01:11:28.369Z,5.30
2022-11-23T01:13:56.110Z,5.22
2022-11-23T01:16:27.571Z,5.23
2022-11-23T01:18:59.344Z,5.24
2022-11-23T01:21:28.961Z,5.11
2022-11-23T01:23:56.460Z,5.40
2022-11-23T01:26:23.936Z,5.42
2022-11-23T01:28:51.671Z,5.16
2022-11-23T01:31:22.732Z,5.23
2022-11-23T01:33:54.715Z,5.23
2022-11-23T01:36:24.327Z,5.37
2022-11-23T01:38:52.245Z,5.19
2022-11-23T01:41:24.352Z,5.47
2022-11-23T01:43:52.058Z,5.28
2022-11-23T01:46:19.912Z,5.23
2022-11-23T01:48:51.089Z,5.55
2022-11-23T01:51:22.274Z,5.59
2022-11-23T01:53:52.793Z,5.58
2022-11-23T01:56:23.693Z,5.28
2022-11-23T01:58:53.073Z,5.44
2022-11-23T02:01:20.812Z,5.42
2022-11-23T02:03:49.244Z,5.35
2022-11-23T02:06:18.728Z,5.30
2022-11-23T02:08:47.361Z,5.31
2022-11-23T02:11:16.552Z,5.41
2022-11-23T02:13:47.849Z,5.23
2022-11-23T02:16:15.241Z,5.28
2022-11-23T02:18:45.234Z,5.40
2022-11-23T02:21:13.116Z,5.17
2022-11-23T02:23:57.583Z,5.19
2022-11-23T02:26:31.166Z,5.16
2022-11-23T02:29:20.377Z,5.33
2022-11-23T02:32:06.744Z,5.23
2022-11-23T02:34:34.074Z,5.26
2022-11-23T02:37:01.722Z,5.40
2022-11-23T02:39:36.930Z,5.66
2022-11-23T02:42:05.351Z,5.71
2022-11-23T02:44:55.258Z,5.48
2022-11-23T02:47:22.920Z,5.56
2022-11-23T02:49:50.265Z,5.70
2022-11-23T02:52:19.129Z,5.67
2022-11-23T02:54:46.810Z,5.69
2022-11-23T02:57:14.723Z,5.72
2022-11-23T02:59:45.003Z,5.59
2022-11-23T03:02:12.895Z,5.29
2022-11-23T03:04:40.670Z,5.30
2022-11-23T03:07:08.046Z,5.11
2022-11-23T03:09:35.873Z,5.34
2022-11-23T03:12:03.303Z,5.53
2022-11-23T03:14:30.717Z,5.09
2022-11-23T03:16:59.898Z,5.19
2022-11-23T03:19:27.668Z,5.57
2022-11-23T03:21:55.082Z,5.42
2022-11-23T03:24:24.733Z,5.47
2022-11-23T03:26:52.673Z,5.45
2022-11-23T03:29:20.230Z,5.55
2022-11-23T03:31:47.988Z,5.23
2022-11-23T03:34:15.725Z,5.36
2022-11-23T03:36:44.070Z,5.09
2022-11-23T03:39:12.123Z,5.05
2022-11-23T03:41:40.664Z,5.18
2022-11-23T03:44:08.915Z,5.42
2022-11-23T03:46:36.483Z,5.51
2022-11-23T03:49:03.881Z,5.77
2022-11-23T03:51:31.240Z,5.56
2022-11-23T03:53:58.814Z,5.16
2022-11-23T03:56:26.138Z,5.44
2022-11-23T03:58:53.608Z,5.43
2022-11-23T04:01:21.738Z,5.15
2022-11-23T04:03:50.321Z,5.45
2022-11-23T04:06:18.417Z,5.18
2022-11-23T04:08:46.447Z,5.21
2022-11-23T04:11:15.232Z,5.31
2022-11-23T04:13:42.721Z,5.65
2022-11-23T04:16:10.118Z,5.34
2022-11-23T04:18:37.803Z,5.22
2022-11-23T04:21:05.369Z,5.26
2022-11-23T04:23:32.688Z,5.44
2022-11-23T04:26:00.693Z,5.22
2022-11-23T04:28:29.267Z,5.34
2022-11-23T04:30:58.790Z,5.38
2022-11-23T04:33:29.111Z,5.46
2022-11-23T04:35:59.118Z,5.31
2022-11-23T04:38:26.830Z,5.66
2022-11-23T04:40:54.535Z,5.51
2022-11-23T04:43:21.898Z,5.19
2022-11-23T04:45:52.696Z,5.05
2022-11-23T04:48:21.226Z,5.40
2022-11-23T04:50:50.855Z,5.45
2022-11-23T04:53:23.558Z,5.19
2022-11-23T04:55:51.264Z,5.58
2022-11-23T04:58:18.710Z,5.38
2022-11-23T05:00:50.540Z,5.42
2022-11-23T05:03:18.561Z,5.41
2022-11-23T05:05:46.120Z,5.28
2022-11-23T05:08:13.909Z,5.29
2022-11-23T05:10:43.900Z,5.11
2022-11-23T05:13:11.526Z,5.21
2022-11-23T05:15:38.880Z,5.07
2022-11-23T05:18:07.201Z,5.61
2022-11-23T05:20:34.748Z,5.30
2022-11-23T05:23:02.089Z,5.31
2022-11-23T05:25:30.102Z,5.18
2022-11-23T05:28:00.997Z,5.09
2022-11-23T05:30:31.843Z,4.98
2022-11-23T05:33:02.988Z,5.22
2022-11-23T05:35:30.867Z,5.15
2022-11-23T05:37:58.622Z,5.37
2022-11-23T05:40:26.600Z,5.59
2022-11-23T05:42:58.483Z,5.60
2022-11-23T05:45:27.053Z,5.55
2022-11-23T05:47:56.743Z,5.74
2022-11-23T05:50:26.709Z,5.54
2022-11-23T05:53:09.019Z,5.43
2022-11-23T05:55:37.049Z,5.46
2022-11-23T05:58:04.522Z,5.79
2022-11-23T06:00:32.190Z,5.66
2022-11-23T06:03:02.997Z,5.32
2022-11-23T06:05:31.508Z,5.54
2022-11-23T06:07:58.888Z,5.48
2022-11-23T06:10:26.838Z,5.26
2022-11-23T06:12:55.630Z,5.56
2022-11-23T06:15:23.339Z,5.61
2022-11-23T06:17:51.328Z,5.61
2022-11-23T06:20:19.414Z,5.58
2022-11-23T06:22:53.293Z,5.24
2022-11-23T06:25:21.544Z,5.61
2022-11-23T06:27:56.806Z,5.86
2022-11-23T06:30:25.694Z,5.66
2022-11-23T06:32:53.260Z,5.45
2022-11-23T06:35:21.253Z,5.60
2022-11-23T06:37:50.961Z,5.45
2022-11-23T06:40:18.729Z,5.77
2022-11-23T06:42:46.202Z,5.55
2022-11-23T06:45:14.575Z,5.41
2022-11-23T06:47:43.840Z,5.27
2022-11-23T06:50:11.579Z,5.50
2022-11-23T06:52:39.464Z,5.68
2022-11-23T06:55:06.987Z,5.45
2022-11-23T06:57:34.860Z,5.71
2022-11-23T07:00:05.191Z,5.81
2022-11-23T07:02:33.134Z,5.31
2022-11-23T07:05:00.661Z,5.60
2022-11-23T07:07:28.733Z,5.62
2022-11-23T07:09:57.673Z,5.84
2022-11-23T07:12:26.957Z,5.50
2022-11-23T07:14:54.595Z,5.56
2022-11-23T07:17:21.940Z,5.84
2022-11-23T07:19:49.266Z,5.61
2022-11-23T07:22:17.212Z,5.66
2022-11-23T07:24:46.856Z,5.76
2022-11-23T07:27:16.984Z,6.00
2022-11-23T07:29:45.059Z,6.27
2022-11-23T07:32:15.148Z,6.14
2022-11-23T07:34:42.496Z,6.14
2022-11-23T07:37:10.436Z,6.15
2022-11-23T07:39:56.443Z,6.00
2022-11-23T07:42:36.854Z,6.21
2022-11-23T07:45:09.349Z,6.45
2022-11-23T07:47:37.500Z,6.61
2022-11-23T07:50:10.400Z,6.35
2022-11-23T07:52:38.289Z,6.46
2022-11-23T07:55:06.130Z,6.08
2022-11-23T07:57:33.515Z,6.72
2022-11-23T08:00:01.087Z,6.41
2022-11-23T08:02:28.490Z,6.58
2022-11-23T08:04:56.193Z,6.63
2022-11-23T08:07:23.552Z,6.77
2022-11-23T08:09:50.948Z,6.78
2022-11-23T08:12:18.556Z,6.88
2022-11-23T08:14:45.865Z,6.92
2022-11-23T08:17:13.238Z,6.90
2022-11-23T08:19:40.838Z,6.98
2022-11-23T08:22:08.194Z,7.03
2022-11-23T08:24:35.717Z,6.73
2022-11-23T08:27:03.492Z,7.26
2022-11-23T08:29:31.071Z,7.28
2022-11-23T08:31:58.669Z,7.30
2022-11-23T08:34:26.344Z,7.15
2022-11-23T08:36:53.682Z,7.07
2022-11-23T08:39:21.146Z,7.15
2022-11-23T08:41:48.824Z,7.18
2022-11-23T08:44:16.159Z,7.07
2022-11-23T08:46:43.500Z,7.21
2022-11-23T08:49:11.086Z,7.43
2022-11-23T08:51:38.406Z,7.46
2022-11-23T08:54:05.745Z,7.73
2022-11-23T08:56:33.330Z,7.60
2022-11-23T08:59:00.646Z,7.59
2022-11-23T09:01:28.084Z,7.72
2022-11-23T09:03:55.718Z,7.23
2022-11-23T09:06:28.977Z,7.51
2022-11-23T09:08:57.078Z,7.68
2022-11-23T09:11:25.637Z,7.93
2022-11-23T09:13:53.074Z,7.92
2022-11-23T09:16:20.946Z,8.08
2022-11-23T09:18:49.525Z,7.83
2022-11-23T09:21:16.944Z,7.86
2022-11-23T09:23:44.532Z,7.84
2022-11-23T09:26:11.850Z,8.15
2022-11-23T09:28:44.461Z,8.22
2022-11-23T09:31:12.806Z,8.06
2022-11-23T09:33:40.144Z,8.24
2022-11-23T09:36:07.753Z,8.47
2022-11-23T09:41:53.795Z,8.24
2022-11-23T09:44:43.856Z,8.14
2022-11-23T09:47:44.802Z,8.20
2022-11-23T09:50:22.418Z,8.08
2022-11-23T09:52:50.139Z,8.36
2022-11-23T09:55:39.514Z,8.17
2022-11-23T09:58:07.633Z,8.38
2022-11-23T10:00:43.872Z,8.69
2022-11-23T10:03:15.852Z,8.56
2022-11-23T10:05:50.768Z,8.37
2022-11-23T10:08:31.666Z,8.61
2022-11-23T10:11:24.280Z,8.46
2022-11-23T10:14:07.081Z,7.92
2022-11-23T10:16:43.950Z,8.34
2022-11-23T10:19:14.567Z,8.26
2022-11-23T10:22:04.903Z,8.56
2022-11-23T10:24:43.189Z,8.00
2022-11-23T10:27:15.756Z,8.07
2022-11-23T10:29:45.002Z,7.77
2022-11-23T10:32:33.384Z,8.08
2022-11-23T10:35:14.132Z,8.16
2022-11-23T10:37:41.776Z,8.33
2022-11-23T10:40:24.849Z,8.56
2022-11-23T10:42:56.429Z,8.03
2022-11-23T10:45:26.095Z,8.13
2022-11-23T10:47:55.857Z,8.00
2022-11-23T10:50:25.980Z,8.22
2022-11-23T10:52:59.799Z,8.48
2022-11-23T10:55:35.112Z,8.34
2022-11-23T10:58:02.782Z,8.32
2022-11-23T11:00:30.962Z,8.55
2022-11-23T11:02:59.763Z,8.05
2022-11-23T11:08:29.537Z,8.21
2022-11-23T11:10:58.229Z,8.33
2022-11-23T11:13:46.361Z,8.00
2022-11-23T11:16:33.459Z,8.45
2022-11-23T11:19:23.150Z,7.68
2022-11-23T11:21:50.746Z,8.28
2022-11-23T11:24:28.120Z,8.40
2022-11-23T11:27:01.593Z,8.33
2022-11-23T11:29:46.567Z,8.34
2022-11-23T11:32:16.130Z,8.57
2022-11-23T11:34:53.512Z,8.89
2022-11-23T11:37:33.373Z,8.29
2022-11-23T11:40:04.057Z,8.44
2022-11-23T11:43:01.121Z,8.61
2022-11-23T11:45:31.897Z,8.95
2022-11-23T11:48:01.334Z,8.95
2022-11-23T11:50:43.130Z,9.18
2022-11-23T11:53:18.801Z,8.63
2022-11-23T11:55:48.509Z,8.83
2022-11-23T11:58:17.259Z,8.25
2022-11-23T12:00:46.928Z,8.14
2022-11-23T12:03:23.670Z,8.49
2022-11-23T12:05:56.040Z,8.77
2022-11-23T12:08:45.433Z,8.78
2022-11-23T12:11:13.375Z,8.82
2022-11-23T12:13:43.459Z,8.77
2022-11-23T12:16:24.105Z,8.95
2022-11-23T12:19:10.389Z,8.62
2022-11-23T12:21:37.680Z,8.96
2022-11-23T12:24:28.229Z,9.28
2022-11-23T12:27:12.366Z,9.42
2022-11-23T12:29:49.058Z,9.38
2022-11-23T12:32:33.369Z,9.41
2022-11-23T12:35:29.994Z,9.42
2022-11-23T12:38:15.659Z,9.15
2022-11-23T12:40:55.654Z,9.09
2022-11-23T12:43:28.980Z,9.14
2022-11-23T12:46:26.305Z,8.87
2022-11-23T12:49:05.670Z,8.71
2022-11-23T12:51:37.176Z,8.64
2022-11-23T12:54:27.692Z,9.01
2022-11-23T12:57:28.353Z,9.03
2022-11-23T13:00:17.910Z,9.13
2022-11-23T13:02:57.541Z,8.46
2022-11-23T13:05:56.912Z,8.81
2022-11-23T13:08:46.861Z,9.32
2022-11-23T13:11:36.830Z,9.09
2022-11-23T13:14:16.860Z,8.57
2022-11-23T13:16:44.302Z,9.56
2022-11-23T13:19:22.917Z,8.65
2022-11-23T13:21:50.563Z,8.49
2022-11-23T13:24:25.158Z,8.68
2022-11-23T13:27:14.172Z,8.76
2022-11-23T13:29:50.906Z,8.83
2022-11-23T13:32:39.671Z,9.23
2022-11-23T13:35:30.204Z,8.32
2022-11-23T13:37:57.444Z,8.92
2022-11-23T13:40:31.108Z,9.15
2022-11-23T13:43:01.609Z,9.12
2022-11-23T13:45:39.232Z,8.92
2022-11-23T13:48:09.630Z,9.15
2022-11-23T13:50:47.491Z,9.28
2022-11-23T13:53:21.835Z,9.09
2022-11-23T13:55:50.364Z,9.13
2022-11-23T13:58:23.730Z,9.29
2022-11-23T14:00:52.355Z,9.25
2022-11-23T14:04:05.487Z,9.25
2022-11-23T14:06:45.641Z,9.15
2022-11-23T14:09:41.258Z,9.22
2022-11-23T14:12:11.494Z,9.50
2022-11-23T14:15:16.588Z,9.29
2022-11-23T14:18:03.288Z,9.36
2022-11-23T14:20:40.250Z,9.31
2022-11-23T14:23:32.050Z,9.35
2022-11-23T14:26:30.927Z,9.08
2022-11-23T14:29:26.123Z,8.73
2022-11-23T14:32:19.637Z,8.97
2022-11-23T14:35:10.739Z,9.11
2022-11-23T14:37:47.190Z,9.19
2022-11-23T14:40:52.787Z,9.42
2022-11-23T14:43:21.255Z,8.37
2022-11-23T14:45:48.754Z,8.94
2022-11-23T14:48:33.420Z,8.77
2022-11-23T14:51:03.664Z,8.46
2022-11-23T14:53:47.236Z,8.64
2022-11-23T14:56:34.396Z,8.79
2022-11-23T14:59:07.677Z,9.22
2022-11-23T15:01:36.531Z,8.84
2022-11-23T15:04:23.184Z,8.76
2022-11-23T15:06:53.506Z,8.70
2022-11-23T15:09:46.748Z,8.59
2022-11-23T15:12:25.925Z,8.60
2022-11-23T15:14:57.240Z,8.75
2022-11-23T15:17:25.330Z,8.35
2022-11-23T15:19:58.291Z,8.64
2022-11-23T15:22:27.264Z,8.76
2022-11-23T15:24:55.402Z,9.06
2022-11-23T15:27:29.508Z,8.79
2022-11-23T15:29:59.432Z,8.11
2022-11-23T15:32:33.355Z,8.81
2022-11-23T15:35:07.076Z,8.20
2022-11-23T15:37:42.812Z,7.31
2022-11-23T15:40:18.217Z,6.86
2022-11-23T15:42:47.286Z,7.26
2022-11-23T15:45:38.099Z,7.76
2022-11-23T15:48:16.456Z,8.60
2022-11-23T15:50:51.218Z,8.84
2022-11-23T15:53:19.641Z,8.33
2022-11-23T15:55:47.533Z,8.34
2022-11-23T15:58:18.787Z,8.80
2022-11-23T16:00:56.768Z,8.72
2022-11-23T16:03:24.270Z,8.64
2022-11-23T16:06:13.762Z,8.64
2022-11-23T16:08:41.696Z,8.64
2022-11-23T16:11:22.827Z,8.62
2022-11-23T16:13:50.501Z,8.67
2022-11-23T16:16:21.426Z,8.21
2022-11-23T16:18:52.501Z,8.07
2022-11-23T16:21:20.558Z,8.25
2022-11-23T16:23:52.427Z,8.06
2022-11-23T16:26:21.049Z,7.88
2022-11-23T16:28:49.726Z,7.36
2022-11-23T16:31:31.680Z,6.27
2022-11-23T16:33:59.423Z,6.29
2022-11-23T16:36:28.052Z,6.54
2022-11-23T16:38:57.615Z,6.61
2022-11-23T16:41:27.847Z,6.27
2022-11-23T16:43:55.342Z,6.49
2022-11-23T16:46:24.432Z,6.67
2022-11-23T16:48:54.326Z,6.57
2022-11-23T16:51:22.080Z,7.18
2022-11-23T16:56:39.140Z,6.37
2022-11-23T16:59:06.827Z,7.29
2022-11-23T17:01:35.733Z,6.35
2022-11-23T17:04:03.901Z,7.16
2022-11-23T17:06:31.834Z,7.46
2022-11-23T17:09:07.461Z,7.46
2022-11-23T17:11:40.092Z,6.20
2022-11-23T17:14:16.342Z,6.55
2022-11-23T17:16:46.661Z,7.54
2022-11-23T17:19:16.388Z,7.70
2022-11-23T17:21:44.789Z,7.87
2022-11-23T17:24:14.232Z,7.50
2022-11-23T17:26:44.557Z,7.49
2022-11-23T17:29:19.586Z,7.74
2022-11-23T17:31:50.337Z,6.60
2022-11-23T17:34:18.842Z,7.27
2022-11-23T17:36:47.304Z,7.91
2022-11-23T17:39:21.943Z,8.24
2022-11-23T17:41:50.182Z,8.28
2022-11-23T17:44:18.155Z,8.11
2022-11-23T17:46:50.763Z,8.19
2022-11-23T17:49:20.387Z,7.66
2022-11-23T17:51:48.376Z,6.87
2022-11-23T17:54:16.380Z,7.11
2022-11-23T17:56:45.204Z,7.25
2022-11-23T17:59:13.796Z,8.17
2022-11-23T18:01:41.832Z,8.67
2022-11-23T18:04:10.442Z,8.96
2022-11-23T18:06:38.873Z,8.86
2022-11-23T18:09:07.088Z,8.82
2022-11-23T18:11:35.280Z,8.74
2022-11-23T18:14:04.002Z,8.84
2022-11-23T18:16:31.931Z,9.15
2022-11-23T18:19:02.828Z,9.12
2022-11-23T18:21:31.509Z,9.05
2022-11-23T18:24:04.249Z,8.96
2022-11-23T18:26:32.888Z,8.84
2022-11-23T18:29:00.872Z,8.78
2022-11-23T18:31:29.312Z,8.73
2022-11-23T18:33:57.594Z,8.61
2022-11-23T18:36:25.600Z,8.70
2022-11-23T18:38:53.070Z,8.68
2022-11-23T18:41:22.652Z,8.53
2022-11-23T18:43:50.814Z,8.90
2022-11-23T18:46:21.751Z,8.80
2022-11-23T18:48:50.728Z,9.05
2022-11-23T18:51:19.043Z,8.94
2022-11-23T18:53:48.231Z,8.44
2022-11-23T18:56:18.153Z,8.43
2022-11-23T18:58:46.981Z,8.79
2022-11-23T19:01:20.307Z,8.20
2022-11-23T19:03:51.057Z,8.63
2022-11-23T19:06:21.174Z,8.60
2022-11-23T19:08:57.427Z,8.64
2022-11-23T19:11:26.032Z,8.57
2022-11-23T19:13:56.972Z,8.85
2022-11-23T19:16:27.636Z,8.75
2022-11-23T19:19:00.692Z,8.67
2022-11-23T19:21:30.725Z,8.81
2022-11-23T19:23:59.553Z,8.87
2022-11-23T19:26:29.402Z,8.79
2022-11-23T19:28:58.754Z,8.77
2022-11-23T19:31:29.847Z,8.94
2022-11-23T19:36:46.724Z,8.94
2022-11-23T19:39:14.608Z,9.21
2022-11-23T19:41:42.628Z,8.93
2022-11-23T19:44:11.343Z,8.64
2022-11-23T19:46:40.133Z,7.75
2022-11-23T19:49:08.948Z,6.76
2022-11-23T19:51:37.167Z,7.42
2022-11-23T19:54:06.575Z,7.76
2022-11-23T19:56:37.594Z,8.27
2022-11-23T19:59:05.952Z,8.41
2022-11-23T20:01:34.012Z,8.39
2022-11-23T20:04:09.149Z,7.23
2022-11-23T20:06:42.649Z,7.79
2022-11-23T20:09:13.323Z,7.41
2022-11-23T20:11:40.894Z,6.77
2022-11-23T20:14:11.118Z,7.68
2022-11-23T20:16:39.417Z,6.58
2022-11-23T20:19:08.726Z,6.99
2022-11-23T20:21:37.667Z,7.15
2022-11-23T20:24:08.749Z,7.32
2022-11-23T20:26:37.009Z,7.11
2022-11-23T20:29:07.290Z,7.45
2022-11-23T20:31:35.928Z,8.16
2022-11-23T20:34:07.603Z,7.94
2022-11-23T20:36:38.311Z,8.10
2022-11-23T20:39:07.730Z,6.95
2022-11-23T20:41:36.478Z,7.54
2022-11-23T20:44:11.623Z,7.60
2022-11-23T20:49:30.537Z,7.39
2022-11-23T20:51:59.308Z,7.64
2022-11-23T20:54:28.422Z,7.80
2022-11-23T20:56:58.515Z,7.02
2022-11-23T20:59:26.717Z,6.93
2022-11-23T21:01:55.115Z,7.19
2022-11-23T21:04:22.909Z,6.15
2022-11-23T21:06:50.890Z,7.37
2022-11-23T21:09:18.635Z,7.82
2022-11-23T21:12:04.785Z,7.79
2022-11-23T21:14:33.825Z,7.92
2022-11-23T21:17:02.722Z,7.99
2022-11-23T21:19:32.185Z,7.97
2022-11-23T21:22:03.974Z,8.03
2022-11-23T21:24:31.637Z,6.44
2022-11-23T21:26:59.694Z,6.94
2022-11-23T21:29:27.678Z,7.84
2022-11-23T21:31:54.997Z,7.48
2022-11-23T21:34:25.921Z,6.64
2022-11-23T21:36:54.402Z,6.44
2022-11-23T21:39:23.099Z,6.42
2022-11-23T21:41:52.422Z,6.32
2022-11-23T21:44:19.974Z,7.56
2022-11-23T21:46:47.372Z,6.35
2022-11-23T21:49:14.985Z,7.03
2022-11-23T21:51:43.635Z,6.49
2022-11-23T21:54:14.213Z,6.52
2022-11-23T21:56:43.030Z,7.25
2022-11-23T21:59:11.170Z,6.40
2022-11-23T22:01:39.427Z,6.96
2022-11-23T22:04:09.946Z,7.19
2022-11-23T22:06:38.371Z,7.10
2022-11-23T22:09:09.244Z,7.99
2022-11-23T22:11:40.296Z,7.86
2022-11-23T22:14:12.868Z,8.01
2022-11-23T22:16:46.061Z,8.02
2022-11-23T22:19:14.912Z,8.07
2022-11-23T22:21:46.240Z,7.88
2022-11-23T22:24:18.341Z,8.03
2022-11-23T22:26:47.681Z,7.55
2022-11-23T22:29:15.797Z,7.53
2022-11-23T22:31:43.798Z,7.58
2022-11-23T22:34:12.892Z,7.95
2022-11-23T22:36:40.539Z,7.81
2022-11-23T22:39:08.241Z,7.66
2022-11-23T22:41:37.536Z,7.39
2022-11-23T22:44:09.787Z,7.55
2022-11-23T22:46:38.540Z,7.67
2022-11-23T22:49:06.063Z,7.70
2022-11-23T22:51:33.976Z,7.60
2022-11-23T22:54:02.196Z,7.33
2022-11-23T22:56:30.840Z,7.35
2022-11-23T22:58:58.867Z,7.41
2022-11-23T23:01:29.114Z,6.63
2022-11-23T23:03:58.914Z,6.43
2022-11-23T23:06:29.317Z,7.55
2022-11-23T23:08:58.968Z,6.94
2022-11-23T23:11:28.666Z,7.51
2022-11-23T23:13:56.189Z,7.46
2022-11-23T23:16:23.908Z,7.52
2022-11-23T23:18:51.646Z,7.71
2022-11-23T23:21:21.416Z,7.58
2022-11-23T23:23:50.742Z,6.98
2022-11-23T23:26:21.122Z,6.36
2022-11-23T23:28:48.670Z,7.13
2022-11-23T23:31:16.998Z,7.13
2022-11-23T23:33:45.827Z,6.47
2022-11-23T23:36:17.474Z,6.78
2022-11-23T23:38:45.516Z,6.88
2022-11-23T23:41:14.081Z,7.14
2022-11-23T23:43:42.380Z,5.78
2022-11-23T23:46:12.008Z,5.62
2022-11-23T23:48:40.414Z,6.01
2022-11-23T23:51:16.499Z,5.74
2022-11-23T23:53:45.129Z,5.53
2022-11-23T23:56:15.106Z,5.72
2022-11-23T23:58:43.930Z,5.99
